CheckWX is a tool to help pilots better visualize weather data.  It is not intended as a substitute for an official pre-flight weather briefing.

20:58:33 UTC

KISM METAR
Kissimmee Gateway Airport
Orlando, Florida, USA
Current

1 hour ago

KISM 231956Z VRB03KT 10SM FEW060 28/14 A3007 RMK AO2 SLP184 T02830144 PNO $
Observed
Apr-23 @ 19:56 UTC
Wind
  • Variable at 3 KTS
Visibility
10 SM
Flight Rules
VFR
Cloud Levels
  • Few at 6,000' AGL
Temperature
28°C / 82°F
Dewpoint
14°C / 57°F
Heat Index
28°C / 82°F
Humidity
42%
Altimeter
30.07" Hg
Pressure
1018.32 hPa
Previous

2 hours ago

KISM 231856Z VRB04KT 10SM CLR 28/13 A3010 RMK AO2 SLP193 T02780133 PNO $
Observed
Apr-23 @ 18:56 UTC
Wind
  • Variable at 4 KTS
Visibility
10 SM
Flight Rules
VFR
Cloud Levels
  • Clear skies
Temperature
28°C / 82°F
Dewpoint
13°C / 55°F
Heat Index
27°C / 81°F
Humidity
40%
Altimeter
30.1" Hg
Pressure
1019.32 hPa
Previous

3 hours ago

KISM 231756Z COR 15004KT 10SM FEW050 27/14 A3012 RMK AO2 SLP201 6//// T02670144 10272 20178 58015 PNO $
Observed
Apr-23 @ 17:56 UTC
Wind
  • 150° at 4 KTS
Visibility
10 SM
Flight Rules
VFR
Cloud Levels
  • Few at 5,000' AGL
Temperature
27°C / 81°F
Dewpoint
14°C / 57°F
Heat Index
27°C / 81°F
Humidity
45%
Altimeter
30.12" Hg
Pressure
1020.02 hPa